Time;durP1;ratioP1;P1;durP2;ratioP2;P2;SDS_P1;SDS_P2;PMS_P1;PMS_P2;Temp;Humidity;BMP_temperature;BMP_pressure;BME280_temperature;BME280_humidity;BME280_pressure;Samples;Min_cycle;Max_cycle;Signal;HPM_P1;HPM_P2
2023/11/03 00:00:12;;;;;;;0.10;0.10;;;;;;;3.50;70.43;99350.03;4959303;28;20093;-70
2023/11/03 00:02:39;;;;;;;0.10;0.10;;;;;;;3.35;70.84;99347.84;4942278;28;20090;-70
2023/11/03 00:05:11;;;;;;;0.10;0.10;;;;;;;3.36;71.90;99352.19;4941173;28;20070;-70
2023/11/03 00:07:38;;;;;;;0.10;0.10;;;;;;;3.37;71.25;99348.41;4942946;28;20082;-70
2023/11/03 00:10:06;;;;;;;0.10;0.10;;;;;;;3.29;71.49;99344.19;4950723;28;20055;-71
2023/11/03 00:12:37;;;;;;;0.10;0.10;;;;;;;3.25;71.59;99343.84;4922820;29;20422;-71
2023/11/03 00:15:04;;;;;;;0.10;0.10;;;;;;;3.25;71.96;99343.03;4941832;28;20150;-70
2023/11/03 00:17:32;;;;;;;0.10;0.10;;;;;;;3.20;71.94;99343.75;4939245;28;20043;-71
2023/11/03 00:19:58;;;;;;;0.10;0.10;;;;;;;3.23;72.10;99348.66;4940906;28;20522;-70
2023/11/03 00:22:27;;;;;;;0.10;0.10;;;;;;;3.17;71.18;99360.44;4943555;28;20058;-70
2023/11/03 00:24:53;;;;;;;0.10;0.10;;;;;;;3.16;71.52;99355.25;4927692;28;20130;-70
2023/11/03 00:27:21;;;;;;;0.10;0.10;;;;;;;3.14;70.97;99351.97;4939208;28;20048;-70
2023/11/03 00:29:48;;;;;;;0.10;0.10;;;;;;;3.09;71.07;99358.06;4921650;29;20055;-70
2023/11/03 00:32:15;;;;;;;0.10;0.10;;;;;;;3.14;71.65;99371.72;4940675;29;20047;-70
2023/11/03 00:34:41;;;;;;;0.10;0.10;;;;;;;3.12;71.16;99365.72;4939164;28;20051;-70
2023/11/03 00:37:07;;;;;;;0.10;0.10;;;;;;;3.13;71.25;99370.06;4954826;28;20478;-70
2023/11/03 00:39:33;;;;;;;0.10;0.10;;;;;;;3.17;71.41;99375.81;4924426;28;20094;-73
2023/11/03 00:41:59;;;;;;;0.10;0.10;;;;;;;3.14;71.83;99379.81;4942565;28;20065;-73
2023/11/03 00:44:25;;;;;;;0.10;0.10;;;;;;;3.19;72.25;99385.34;4908079;28;20052;-74
2023/11/03 00:46:53;;;;;;;0.10;0.10;;;;;;;3.21;72.00;99391.31;4941149;28;20050;-71
2023/11/03 00:49:20;;;;;;;0.10;0.10;;;;;;;3.23;72.27;99396.50;4941391;28;20502;-71
2023/11/03 00:51:46;;;;;;;0.10;0.10;;;;;;;3.32;71.63;99391.56;4938115;28;20051;-71
2023/11/03 00:54:12;;;;;;;0.10;0.10;;;;;;;3.30;71.90;99394.47;4939989;28;20055;-70
2023/11/03 00:56:39;;;;;;;0.10;0.10;;;;;;;3.34;72.44;99389.44;4941108;29;20046;-70
2023/11/03 00:59:07;;;;;;;0.10;0.10;;;;;;;3.31;72.41;99389.91;4941329;28;20109;-70
2023/11/03 01:01:34;;;;;;;0.10;0.10;;;;;;;3.33;72.22;99398.59;4939495;28;20132;-70
2023/11/03 01:04:02;;;;;;;0.10;0.10;;;;;;;3.33;72.36;99395.91;4939578;29;20074;-70
2023/11/03 01:06:28;;;;;;;;;;;;;;;3.35;71.79;99399.19;4941732;28;20047;-70
2023/11/03 01:08:54;;;;;;;0.10;0.10;;;;;;;3.28;71.62;99410.13;4941938;28;20095;-70
2023/11/03 01:11:26;;;;;;;0.10;0.10;;;;;;;3.27;72.05;99397.66;4939403;28;20457;-70
2023/11/03 01:13:53;;;;;;;0.10;0.10;;;;;;;3.28;71.08;99410.13;4937765;28;20101;-69
2023/11/03 01:16:22;;;;;;;0.00;0.00;;;;;;;3.25;71.04;99414.09;4942590;28;20055;-70
2023/11/03 01:18:49;;;;;;;0.10;0.10;;;;;;;3.21;71.83;99412.94;4940849;28;20531;-71
2023/11/03 01:21:18;;;;;;;0.10;0.10;;;;;;;3.21;71.59;99420.25;4937101;28;20043;-70
2023/11/03 01:23:49;;;;;;;0.10;0.10;;;;;;;3.17;71.10;99416.34;4939998;28;20047;-73
2023/11/03 01:26:16;;;;;;;0.10;0.10;;;;;;;3.16;72.20;99423.63;4936847;28;20047;-74
2023/11/03 01:28:43;;;;;;;0.10;0.10;;;;;;;3.21;72.06;99429.16;4939076;28;20059;-73
2023/11/03 01:31:11;;;;;;;0.10;0.10;;;;;;;3.22;72.21;99428.09;4939839;28;20082;-73
2023/11/03 01:33:40;;;;;;;;;;;;;;;3.16;72.26;99425.50;4939243;28;20055;-74
2023/11/03 01:36:08;;;;;;;0.10;0.10;;;;;;;3.12;72.78;99417.88;4920472;29;20034;-73
2023/11/03 01:38:38;;;;;;;0.10;0.10;;;;;;;3.14;72.29;99424.91;4938210;28;20150;-73
2023/11/03 01:41:05;;;;;;;0.10;0.10;;;;;;;3.22;72.65;99428.09;4937813;28;20577;-73
2023/11/03 01:43:33;;;;;;;0.10;0.10;;;;;;;3.37;72.96;99421.38;4939852;28;20055;-73
2023/11/03 01:46:00;;;;;;;0.10;0.10;;;;;;;3.33;72.37;99426.44;4954078;28;20070;-73
2023/11/03 01:48:29;;;;;;;0.10;0.10;;;;;;;3.37;72.83;99432.19;4933743;28;20123;-73
2023/11/03 01:50:58;;;;;;;0.10;0.10;;;;;;;3.46;73.08;99424.56;4939938;28;20130;-73
2023/11/03 01:53:26;;;;;;;0.10;0.10;;;;;;;3.52;72.93;99424.44;4950966;28;20499;-73
2023/11/03 01:55:54;;;;;;;0.10;0.10;;;;;;;3.62;72.45;99428.41;4962722;28;20075;-73
2023/11/03 01:58:20;;;;;;;0.10;0.10;;;;;;;3.62;71.43;99418.41;4941441;28;20079;-73
2023/11/03 02:00:47;;;;;;;0.10;0.10;;;;;;;3.71;71.26;99426.16;4938379;28;20054;-73
2023/11/03 02:03:14;;;;;;;0.10;0.10;;;;;;;3.71;70.51;99426.16;4937630;28;20497;-73
2023/11/03 02:05:40;;;;;;;0.10;0.10;;;;;;;3.74;70.14;99440.00;4940699;28;20051;-73
2023/11/03 02:08:06;;;;;;;0.10;0.10;;;;;;;3.79;70.54;99445.53;4941167;28;20063;-74
2023/11/03 02:10:32;;;;;;;0.10;0.10;;;;;;;3.75;71.22;99452.50;4939071;28;20043;-73
2023/11/03 02:13:01;;;;;;;0.10;0.10;;;;;;;3.67;71.73;99455.56;4940218;28;20082;-74
2023/11/03 02:15:27;;;;;;;0.10;0.10;;;;;;;3.61;72.30;99453.81;4940162;28;20082;-74
2023/11/03 02:17:54;;;;;;;0.10;0.10;;;;;;;3.64;71.95;99442.53;4938896;28;20472;-74
2023/11/03 02:20:21;;;;;;;0.10;0.10;;;;;;;3.58;71.50;99459.66;4938645;28;20922;-73
2023/11/03 02:22:53;;;;;;;0.10;0.10;;;;;;;3.46;71.97;99448.88;4936305;28;20118;-73
2023/11/03 02:25:19;;;;;;;0.10;0.10;;;;;;;3.37;72.18;99453.81;4901484;28;20096;-73
2023/11/03 02:27:46;;;;;;;0.10;0.10;;;;;;;3.37;71.46;99457.34;4939216;28;20077;-73
2023/11/03 02:30:13;;;;;;;0.10;0.10;;;;;;;3.41;72.06;99463.09;4937976;28;20132;-74
2023/11/03 02:32:39;;;;;;;0.10;0.10;;;;;;;3.38;72.17;99461.72;4939873;28;20090;-73
2023/11/03 02:35:06;;;;;;;0.10;0.10;;;;;;;3.44;71.94;99472.63;4942285;28;20043;-74
2023/11/03 02:37:32;;;;;;;0.10;0.10;;;;;;;3.37;71.36;99470.88;4938553;28;20054;-70
2023/11/03 02:40:00;;;;;;;0.10;0.10;;;;;;;3.31;71.87;99460.97;4919795;28;20074;-70
2023/11/03 02:42:27;;;;;;;0.10;0.10;;;;;;;3.34;72.44;99470.50;4923994;28;20055;-70
2023/11/03 02:44:53;;;;;;;0.10;0.10;;;;;;;3.36;72.25;99469.22;4921490;29;20051;-70
2023/11/03 02:47:19;;;;;;;0.10;0.10;;;;;;;3.38;71.42;99472.53;4935749;28;20513;-69
2023/11/03 02:49:46;;;;;;;0.10;0.10;;;;;;;3.36;71.87;99482.75;4939840;28;20577;-70
2023/11/03 02:52:12;;;;;;;0.10;0.10;;;;;;;3.31;72.09;99474.50;4940556;28;20048;-70
2023/11/03 02:54:38;;;;;;;0.00;0.00;;;;;;;3.32;71.68;99472.63;4937481;28;20074;-70
2023/11/03 02:57:06;;;;;;;0.10;0.10;;;;;;;3.30;72.78;99474.75;4934352;28;20502;-70
2023/11/03 02:59:32;;;;;;;;;;;;;;;3.32;73.05;99475.34;4936293;29;20142;-70
2023/11/03 03:01:58;;;;;;;0.10;0.10;;;;;;;3.30;72.56;99470.16;4919837;28;20316;-70
2023/11/03 03:04:25;;;;;;;0.10;0.10;;;;;;;3.32;73.29;99475.34;4940387;28;20063;-70
2023/11/03 03:06:51;;;;;;;0.10;0.10;;;;;;;3.35;73.05;99477.56;4938146;28;20051;-73
2023/11/03 03:09:18;;;;;;;0.10;0.10;;;;;;;3.40;72.98;99472.25;4951736;28;20139;-73
2023/11/03 03:11:44;;;;;;;0.10;0.10;;;;;;;3.38;73.09;99479.78;4937541;28;20050;-73
2023/11/03 03:14:14;;;;;;;0.10;0.10;;;;;;;3.39;71.83;99486.84;4937332;28;20518;-72
2023/11/03 03:16:40;;;;;;;0.10;0.10;;;;;;;3.37;73.02;99492.50;4938263;28;20051;-70
2023/11/03 03:19:06;;;;;;;0.10;0.10;;;;;;;3.44;73.64;99483.44;4942212;28;20518;-70
2023/11/03 03:21:32;;;;;;;0.00;0.00;;;;;;;3.50;73.14;99490.59;4938957;28;20047;-70
2023/11/03 03:23:59;;;;;;;0.10;0.10;;;;;;;3.50;73.97;99491.44;4905626;28;20047;-71
2023/11/03 03:26:26;;;;;;;0.10;0.10;;;;;;;3.47;72.20;99502.72;4935287;28;20058;-70
2023/11/03 03:28:52;;;;;;;0.10;0.10;;;;;;;3.50;71.70;99509.50;4937491;28;20532;-70
2023/11/03 03:31:20;;;;;;;0.10;0.10;;;;;;;3.36;72.09;99506.22;4937775;28;20071;-70
2023/11/03 03:33:47;;;;;;;0.10;0.10;;;;;;;3.30;71.87;99504.47;4937447;28;20055;-73
2023/11/03 03:36:14;;;;;;;0.00;0.00;;;;;;;3.20;71.89;99507.72;4936600;28;20047;-73
2023/11/03 03:38:41;;;;;;;;;;;;;;;3.13;72.33;99521.38;4937148;28;20051;-73
2023/11/03 03:41:11;;;;;;;0.10;0.10;;;;;;;3.08;72.45;99518.53;4938067;28;19949;-73
2023/11/03 03:43:38;;;;;;;0.10;0.10;;;;;;;3.10;72.74;99511.84;4922432;28;20047;-74
2023/11/03 03:46:04;;;;;;;0.10;0.10;;;;;;;3.06;72.78;99512.53;4937698;29;20193;-73
2023/11/03 03:48:32;;;;;;;0.10;0.10;;;;;;;3.06;73.09;99523.34;4937322;28;20150;-73
2023/11/03 03:50:58;;;;;;;;;;;;;;;3.01;72.04;99515.94;4944727;28;20081;-71
2023/11/03 03:53:25;;;;;;;0.10;0.10;;;;;;;2.96;72.31;99507.72;4939837;29;19938;-70
2023/11/03 03:55:51;;;;;;;0.00;0.00;;;;;;;2.86;72.58;99519.06;4944656;28;20096;-70
2023/11/03 03:58:17;;;;;;;0.10;0.10;;;;;;;2.79;72.91;99527.28;4927423;28;20051;-71
2023/11/03 04:00:44;;;;;;;0.00;0.00;;;;;;;2.78;72.29;99527.50;4942464;28;20062;-70
2023/11/03 04:03:10;;;;;;;0.10;0.10;;;;;;;2.79;72.64;99538.06;4941696;28;20050;-70
2023/11/03 04:05:39;;;;;;;0.10;0.10;;;;;;;2.81;73.23;99537.81;4941138;29;20047;-70
2023/11/03 04:08:05;;;;;;;0.10;0.10;;;;;;;2.85;73.65;99536.34;4937898;28;20066;-70
2023/11/03 04:10:31;;;;;;;0.00;0.00;;;;;;;2.95;74.19;99557.38;4942692;28;20083;-70
2023/11/03 04:12:57;;;;;;;0.10;0.10;;;;;;;3.00;74.36;99556.69;4939170;28;20429;-70
2023/11/03 04:15:24;;;;;;;0.10;0.10;;;;;;;2.99;74.54;99563.97;4909549;28;20124;-70
2023/11/03 04:17:50;;;;;;;0.10;0.10;;;;;;;3.00;74.95;99562.91;4942741;28;20047;-70
2023/11/03 04:20:17;;;;;;;0.00;0.00;;;;;;;3.00;74.59;99570.19;4920887;28;20151;-70
2023/11/03 04:22:44;;;;;;;0.00;0.00;;;;;;;3.01;74.57;99569.97;4958029;28;20062;-70
2023/11/03 04:25:11;;;;;;;0.10;0.10;;;;;;;2.95;74.13;99570.88;4939162;28;20052;-70
2023/11/03 04:27:37;;;;;;;0.10;0.10;;;;;;;2.99;74.41;99566.66;4940406;28;20086;-70
2023/11/03 04:30:04;;;;;;;0.10;0.10;;;;;;;2.91;74.49;99564.31;4940015;28;20583;-70
2023/11/03 04:32:31;;;;;;;0.10;0.10;;;;;;;2.88;75.16;99575.53;4940669;28;20055;-70
2023/11/03 04:34:58;;;;;;;0.10;0.10;;;;;;;2.87;75.05;99574.75;4938307;28;20344;-73
2023/11/03 04:37:24;;;;;;;0.10;0.10;;;;;;;2.86;75.49;99585.75;4955164;28;20078;-73
2023/11/03 04:39:52;;;;;;;0.10;0.10;;;;;;;2.91;75.76;99588.63;4939719;28;20142;-74
2023/11/03 04:42:19;;;;;;;0.10;0.10;;;;;;;2.84;75.31;99588.69;4941391;28;20441;-73
2023/11/03 04:44:45;;;;;;;0.10;0.10;;;;;;;2.72;75.05;99593.22;4941392;28;20047;-73
2023/11/03 04:47:11;;;;;;;0.10;0.10;;;;;;;2.68;74.88;99596.38;4927994;28;20146;-73
2023/11/03 04:49:38;;;;;;;0.10;0.10;;;;;;;2.66;74.78;99595.78;4936360;28;20066;-73
2023/11/03 04:52:04;;;;;;;0.10;0.10;;;;;;;2.67;74.87;99602.00;4936670;28;20058;-73
2023/11/03 04:54:30;;;;;;;0.10;0.10;;;;;;;2.65;73.93;99604.09;4938587;28;20484;-71
2023/11/03 04:56:58;;;;;;;0.10;0.10;;;;;;;2.67;73.68;99612.81;4938903;28;20055;-70
2023/11/03 04:59:24;;;;;;;0.10;0.10;;;;;;;2.61;73.81;99609.13;4939439;28;20129;-73
2023/11/03 05:01:51;;;;;;;0.00;0.00;;;;;;;2.62;74.50;99613.47;4938555;28;20105;-73
2023/11/03 05:04:17;;;;;;;0.10;0.10;;;;;;;2.64;74.61;99613.25;4942357;28;20047;-73
2023/11/03 05:06:43;;;;;;;0.10;0.10;;;;;;;2.67;73.87;99607.41;4939281;28;20047;-73
2023/11/03 05:09:10;;;;;;;0.10;0.10;;;;;;;2.66;73.27;99624.66;4941165;28;20085;-73
2023/11/03 05:11:37;;;;;;;0.10;0.10;;;;;;;2.63;73.16;99627.81;4939911;28;20495;-73
2023/11/03 05:14:05;;;;;;;0.10;0.10;;;;;;;2.67;73.84;99637.94;4951366;28;20511;-73
2023/11/03 05:16:31;;;;;;;0.10;0.10;;;;;;;2.64;74.41;99632.16;4940002;28;21016;-73
2023/11/03 05:18:58;;;;;;;0.47;0.20;;;;;;;2.64;74.67;99632.97;4941401;28;20137;-73
2023/11/03 05:21:25;;;;;;;0.10;0.10;;;;;;;2.68;75.53;99636.88;4939324;28;20063;-73
2023/11/03 05:23:51;;;;;;;0.10;0.10;;;;;;;2.72;75.73;99631.84;4922282;28;20047;-73
2023/11/03 05:26:17;;;;;;;0.10;0.10;;;;;;;2.91;75.46;99640.75;4937652;28;20055;-73
2023/11/03 05:28:43;;;;;;;0.10;0.10;;;;;;;3.01;74.22;99645.59;4954417;28;20043;-74
2023/11/03 05:31:12;;;;;;;0.10;0.10;;;;;;;3.07;74.07;99649.25;4934402;28;20069;-72
2023/11/03 05:33:38;;;;;;;0.10;0.10;;;;;;;3.10;73.30;99649.63;4936169;28;20047;-73
2023/11/03 05:36:05;;;;;;;0.10;0.10;;;;;;;3.17;73.76;99644.13;4939699;28;20331;-73
2023/11/03 05:38:31;;;;;;;0.00;0.00;;;;;;;3.26;74.26;99645.44;4927589;28;20126;-73
2023/11/03 05:40:58;;;;;;;0.10;0.10;;;;;;;3.35;73.26;99642.44;4940335;28;20065;-73
2023/11/03 05:43:24;;;;;;;0.10;0.10;;;;;;;3.36;73.90;99641.38;4936821;29;20273;-73
2023/11/03 05:45:50;;;;;;;0.10;0.10;;;;;;;3.35;73.69;99647.84;4939341;28;20059;-70
2023/11/03 05:48:18;;;;;;;0.10;0.10;;;;;;;3.43;74.18;99652.91;4906562;28;20161;-70
2023/11/03 05:50:44;;;;;;;0.10;0.10;;;;;;;3.49;73.61;99648.44;4937816;28;20055;-71
2023/11/03 05:53:11;;;;;;;0.10;0.10;;;;;;;3.42;72.30;99651.25;4917951;28;20066;-70
2023/11/03 05:55:37;;;;;;;0.10;0.10;;;;;;;3.37;72.55;99665.47;4934830;28;20517;-70
2023/11/03 05:58:04;;;;;;;0.10;0.10;;;;;;;3.26;73.20;99663.56;4942981;28;20169;-70
2023/11/03 06:00:31;;;;;;;0.10;0.10;;;;;;;3.25;72.44;99660.00;4941102;28;20057;-70
2023/11/03 06:02:57;;;;;;;0.10;0.10;;;;;;;3.32;73.19;99656.41;4939239;28;20405;-70
2023/11/03 06:05:26;;;;;;;0.47;0.10;;;;;;;3.36;73.87;99655.72;4961114;28;20051;-72
2023/11/03 06:07:52;;;;;;;0.10;0.10;;;;;;;3.27;74.08;99659.78;4941215;28;20162;-72
2023/11/03 06:10:18;;;;;;;0.10;0.10;;;;;;;3.29;74.06;99665.78;4930031;28;20459;-73
2023/11/03 06:12:46;;;;;;;0.10;0.10;;;;;;;3.43;75.02;99658.31;4933560;28;20161;-72
2023/11/03 06:15:13;;;;;;;0.10;0.10;;;;;;;3.52;73.60;99661.53;4934670;28;20069;-73
2023/11/03 06:17:39;;;;;;;0.10;0.10;;;;;;;3.61;73.55;99667.41;4926408;28;20146;-73
2023/11/03 06:20:08;;;;;;;0.10;0.10;;;;;;;3.51;73.27;99671.50;4901156;28;20211;-73
2023/11/03 06:22:36;;;;;;;0.10;0.10;;;;;;;3.46;72.50;99667.84;4941445;28;20055;-70
2023/11/03 06:25:01;;;;;;;;;;;;;;;3.38;73.10;99674.41;4939094;29;20047;-72
2023/11/03 06:27:28;;;;;;;0.10;0.10;;;;;;;3.34;72.00;99667.81;4939784;28;19933;-72
2023/11/03 06:29:54;;;;;;;0.10;0.10;;;;;;;3.32;72.44;99683.44;4921700;28;20085;-73
2023/11/03 06:32:21;;;;;;;0.10;0.10;;;;;;;3.18;71.76;99674.66;4934032;28;20820;-70
2023/11/03 06:34:47;;;;;;;0.10;0.10;;;;;;;3.28;73.05;99682.22;4897399;29;20101;-70
2023/11/03 06:37:14;;;;;;;0.10;0.10;;;;;;;3.33;73.33;99682.38;4593820;28;10000446;-72
2023/11/03 06:39:41;;;;;;;0.10;0.10;;;;;;;3.38;72.01;99687.91;4931426;28;20557;-71
2023/11/03 06:42:08;;;;;;;0.10;0.10;;;;;;;3.40;71.85;99692.03;4934798;28;20051;-72
2023/11/03 06:44:34;;;;;;;0.10;0.10;;;;;;;3.41;72.53;99690.16;4935366;28;20544;-70
2023/11/03 06:47:00;;;;;;;0.10;0.10;;;;;;;3.44;73.05;99689.72;4963955;28;20058;-73
2023/11/03 06:49:27;;;;;;;0.10;0.10;;;;;;;3.54;72.97;99703.47;4934772;28;20402;-73
2023/11/03 06:51:53;;;;;;;0.10;0.10;;;;;;;3.59;73.40;99701.94;4939232;28;20051;-71
2023/11/03 06:54:19;;;;;;;0.10;0.10;;;;;;;3.60;72.71;99704.44;4940410;28;20043;-73
2023/11/03 06:56:47;;;;;;;0.10;0.10;;;;;;;3.69;73.44;99696.81;4934411;28;20082;-73
2023/11/03 06:59:14;;;;;;;0.10;0.10;;;;;;;3.67;72.73;99705.19;4940466;28;20058;-70
2023/11/03 07:01:41;;;;;;;0.13;0.13;;;;;;;3.62;72.62;99715.84;4937627;28;20048;-70
2023/11/03 07:04:09;;;;;;;0.10;0.10;;;;;;;3.61;71.92;99710.69;4939634;28;20160;-73
2023/11/03 07:06:35;;;;;;;0.10;0.10;;;;;;;3.62;72.27;99726.66;4940579;28;20059;-73
2023/11/03 07:09:04;;;;;;;0.10;0.10;;;;;;;3.60;71.64;99728.78;4938156;29;20109;-73
2023/11/03 07:11:30;;;;;;;0.10;0.10;;;;;;;3.61;71.63;99727.72;4939066;28;20071;-73
2023/11/03 07:13:58;;;;;;;0.10;0.10;;;;;;;3.55;72.14;99726.75;4939967;28;20426;-73
2023/11/03 07:16:25;;;;;;;0.10;0.10;;;;;;;3.54;71.22;99725.09;4940950;28;20078;-73
2023/11/03 07:18:51;;;;;;;0.10;0.10;;;;;;;3.55;70.84;99732.16;4942359;28;20050;-73
2023/11/03 07:21:17;;;;;;;0.10;0.10;;;;;;;3.54;70.92;99733.22;4939487;28;20130;-70
2023/11/03 07:23:44;;;;;;;0.43;0.20;;;;;;;3.54;70.12;99735.94;4940113;29;20503;-70
2023/11/03 07:26:13;;;;;;;0.10;0.10;;;;;;;3.52;70.00;99735.34;4943292;28;20043;-70
2023/11/03 07:28:40;;;;;;;0.10;0.10;;;;;;;3.49;70.21;99730.38;4949772;28;20053;-69
2023/11/03 07:31:11;;;;;;;0.10;0.10;;;;;;;3.52;70.43;99732.63;4948836;28;20058;-70
2023/11/03 07:33:39;;;;;;;0.57;0.15;;;;;;;3.72;71.04;99726.09;4925619;29;20585;-70
2023/11/03 07:36:06;;;;;;;0.10;0.10;;;;;;;3.83;70.52;99727.19;4938083;28;20468;-70
2023/11/03 07:38:33;;;;;;;0.10;0.10;;;;;;;3.81;69.99;99740.09;4941007;28;20051;-70
2023/11/03 07:40:59;;;;;;;0.10;0.10;;;;;;;3.78;69.38;99744.13;4942019;28;20059;-73
2023/11/03 07:43:26;;;;;;;0.10;0.10;;;;;;;3.79;70.00;99753.88;4940064;28;20146;-73
2023/11/03 07:45:52;;;;;;;0.10;0.10;;;;;;;3.78;69.89;99746.00;4939569;28;20075;-73
2023/11/03 07:48:23;;;;;;;0.10;0.10;;;;;;;3.78;70.54;99754.94;4941007;28;20047;-73
2023/11/03 07:50:52;;;;;;;0.10;0.10;;;;;;;3.80;70.74;99760.09;4923340;29;20146;-70
2023/11/03 07:53:19;;;;;;;0.13;0.13;;;;;;;3.83;70.08;99759.66;4921821;28;20521;-70
2023/11/03 07:55:46;;;;;;;0.10;0.10;;;;;;;3.83;69.55;99767.78;4937911;28;20051;-70
2023/11/03 07:58:13;;;;;;;0.10;0.10;;;;;;;3.76;69.61;99775.16;4957216;28;20058;-69
2023/11/03 08:00:39;;;;;;;0.10;0.10;;;;;;;3.75;69.94;99771.63;4599440;28;10000135;-70
2023/11/03 08:03:07;;;;;;;0.10;0.10;;;;;;;3.67;70.22;99778.19;4938890;28;20086;-70
2023/11/03 08:05:37;;;;;;;0.10;0.10;;;;;;;3.77;71.23;99779.50;4593997;28;10000410;-70
2023/11/03 08:08:04;;;;;;;0.10;0.10;;;;;;;3.83;70.73;99784.00;4936850;29;20059;-70
2023/11/03 08:10:30;;;;;;;0.10;0.10;;;;;;;3.85;70.71;99775.66;4932728;29;20430;-70
2023/11/03 08:12:58;;;;;;;0.10;0.10;;;;;;;3.97;70.48;99790.03;4939129;28;20074;-72
2023/11/03 08:15:24;;;;;;;0.10;0.10;;;;;;;4.06;69.76;99791.38;4942578;28;20249;-72
2023/11/03 08:17:51;;;;;;;0.10;0.10;;;;;;;3.93;69.15;99786.97;4942432;28;20051;-73
2023/11/03 08:20:19;;;;;;;0.10;0.10;;;;;;;3.83;69.98;99790.22;4945342;28;20119;-72
2023/11/03 08:22:48;;;;;;;0.10;0.10;;;;;;;3.79;70.28;99791.75;4582870;28;10000202;-73
2023/11/03 08:25:14;;;;;;;0.10;0.10;;;;;;;3.84;69.99;99788.38;4928447;28;20040;-72
2023/11/03 08:27:41;;;;;;;0.65;0.20;;;;;;;3.94;70.25;99796.72;4928827;28;20121;-73
2023/11/03 08:30:11;;;;;;;0.10;0.10;;;;;;;3.99;70.12;99793.31;4907554;29;20054;-73
2023/11/03 08:32:37;;;;;;;0.10;0.10;;;;;;;3.95;70.30;99794.84;4932735;28;20043;-72
2023/11/03 08:35:05;;;;;;;0.10;0.10;;;;;;;4.01;69.91;99799.34;4931789;28;20180;-72
2023/11/03 08:37:31;;;;;;;0.10;0.10;;;;;;;4.01;70.33;99802.03;4934376;28;20051;-73
2023/11/03 08:40:03;;;;;;;0.10;0.10;;;;;;;4.00;70.06;99794.16;4942106;28;20058;-72
2023/11/03 08:42:30;;;;;;;0.10;0.10;;;;;;;4.11;70.19;99802.31;4913990;29;20055;-73
2023/11/03 08:44:56;;;;;;;0.10;0.10;;;;;;;4.32;70.01;99797.41;4946050;28;20050;-73
2023/11/03 08:47:22;;;;;;;0.10;0.10;;;;;;;4.32;68.73;99800.09;4931354;29;20054;-70
2023/11/03 08:49:48;;;;;;;0.10;0.10;;;;;;;4.24;68.88;99797.75;4938981;28;20070;-70
2023/11/03 08:52:16;;;;;;;0.13;0.13;;;;;;;4.24;69.74;99793.16;4925718;29;20047;-70
2023/11/03 08:54:43;;;;;;;0.10;0.10;;;;;;;4.29;69.35;99808.69;4939011;28;20055;-70
2023/11/03 08:57:12;;;;;;;0.10;0.10;;;;;;;4.14;68.73;99794.78;4944219;28;20074;-70
2023/11/03 08:59:39;;;;;;;0.10;0.10;;;;;;;4.08;68.88;99808.19;4936446;28;20063;-70
2023/11/03 09:02:06;;;;;;;0.10;0.10;;;;;;;4.09;69.10;99806.28;4921243;28;20047;-70
2023/11/03 09:04:35;;;;;;;0.20;0.20;;;;;;;4.04;68.92;99795.34;4945151;28;20062;-71
2023/11/03 09:07:03;;;;;;;0.10;0.10;;;;;;;4.17;69.50;99802.44;4937689;29;20154;-71
2023/11/03 09:09:31;;;;;;;0.10;0.10;;;;;;;4.38;69.41;99809.19;4937970;29;20102;-71
2023/11/03 09:11:57;;;;;;;0.10;0.10;;;;;;;4.44;68.83;99813.66;4951061;28;20044;-70
2023/11/03 09:14:32;;;;;;;0.10;0.10;;;;;;;4.55;68.71;99817.44;4936075;28;20057;-70
2023/11/03 09:17:01;;;;;;;0.10;0.10;;;;;;;4.47;67.28;99817.78;4919862;28;20617;-73
2023/11/03 09:19:31;;;;;;;0.10;0.10;;;;;;;4.21;67.93;99814.44;4935119;29;20138;-72
2023/11/03 09:21:58;;;;;;;0.17;0.17;;;;;;;4.24;68.29;99808.56;4949538;28;20055;-73
2023/11/03 09:24:27;;;;;;;0.10;0.10;;;;;;;4.30;68.26;99818.47;4923172;28;20390;-72
2023/11/03 09:26:56;;;;;;;0.10;0.10;;;;;;;4.40;67.62;99817.88;4931825;29;20047;-72
2023/11/03 09:29:23;;;;;;;0.10;0.10;;;;;;;4.27;67.72;99813.53;4913790;28;20058;-72
2023/11/03 09:31:53;;;;;;;0.10;0.10;;;;;;;4.12;67.15;99813.94;4936031;29;20526;-72
2023/11/03 09:34:20;;;;;;;0.10;0.10;;;;;;;4.06;67.51;99813.00;4936841;28;20058;-72
2023/11/03 09:36:54;;;;;;;0.10;0.10;;;;;;;3.99;67.97;99825.00;4940002;28;20094;-73
2023/11/03 09:39:21;;;;;;;0.13;0.13;;;;;;;4.01;68.10;99826.38;4922820;29;20054;-70
2023/11/03 09:42:07;;;;;;;0.10;0.10;;;;;;;4.13;67.53;99831.81;4959927;28;20047;-70
2023/11/03 09:44:36;;;;;;;0.10;0.10;;;;;;;4.20;67.83;99826.31;4952168;28;20070;-72
2023/11/03 09:47:10;;;;;;;0.10;0.10;;;;;;;4.24;67.49;99835.66;4937868;28;20419;-73
2023/11/03 09:49:39;;;;;;;0.10;0.10;;;;;;;4.23;67.64;99836.72;4931590;28;20043;-71
2023/11/03 09:52:10;;;;;;;0.10;0.10;;;;;;;4.31;68.10;99828.22;4938785;28;20057;-72
2023/11/03 09:54:37;;;;;;;0.10;0.10;;;;;;;4.34;68.02;99826.94;4936274;29;20061;-72
2023/11/03 09:57:08;;;;;;;0.10;0.10;;;;;;;4.43;67.83;99835.56;4932836;29;20043;-69
2023/11/03 09:59:37;;;;;;;0.10;0.10;;;;;;;4.44;67.79;99845.31;4937920;28;20435;-72
2023/11/03 10:02:09;;;;;;;0.13;0.10;;;;;;;4.45;67.54;99841.56;4947249;28;20132;-72
2023/11/03 10:04:38;;;;;;;0.10;0.10;;;;;;;4.48;68.06;99833.81;4934293;28;20047;-72
2023/11/03 10:07:10;;;;;;;0.10;0.10;;;;;;;4.49;67.77;99843.56;4937085;28;20067;-72
2023/11/03 10:09:37;;;;;;;0.10;0.10;;;;;;;4.51;67.41;99855.00;4919512;28;20039;-72
2023/11/03 10:12:09;;;;;;;0.10;0.10;;;;;;;4.44;66.50;99867.00;4938299;28;20133;-69
2023/11/03 10:14:40;;;;;;;0.10;0.10;;;;;;;4.38;66.92;99860.63;4933584;28;20310;-69
2023/11/03 10:17:11;;;;;;;0.10;0.10;;;;;;;4.28;66.91;99858.47;4914980;28;20047;-72
2023/11/03 10:19:38;;;;;;;0.10;0.10;;;;;;;4.27;66.76;99862.25;4934979;29;20487;-70
2023/11/03 10:22:09;;;;;;;0.10;0.10;;;;;;;4.17;66.54;99873.63;4921426;28;20047;-72
2023/11/03 10:24:39;;;;;;;0.10;0.10;;;;;;;4.13;67.12;99867.00;4934720;28;20043;-70
2023/11/03 10:27:11;;;;;;;0.10;0.10;;;;;;;4.17;67.29;99878.22;4937950;29;20192;-69
2023/11/03 10:29:43;;;;;;;0.10;0.10;;;;;;;4.19;66.76;99881.50;4939825;29;20047;-69
2023/11/03 10:32:18;;;;;;;0.20;0.20;;;;;;;4.22;66.34;99889.19;4923749;29;20510;-70
2023/11/03 10:34:48;;;;;;;0.10;0.10;;;;;;;4.16;66.64;99882.81;4937794;28;20074;-70
2023/11/03 10:37:15;;;;;;;0.10;0.10;;;;;;;4.18;66.55;99887.97;4923988;29;20089;-73
2023/11/03 10:39:41;;;;;;;0.10;0.10;;;;;;;4.16;66.31;99871.97;4936360;29;20105;-70
2023/11/03 10:42:10;;;;;;;0.10;0.10;;;;;;;4.15;66.23;99872.19;4922766;29;20087;-70
2023/11/03 10:44:37;;;;;;;0.13;0.13;;;;;;;4.16;66.17;99876.56;4924125;29;20600;-70
2023/11/03 10:47:07;;;;;;;0.10;0.10;;;;;;;4.16;66.55;99869.28;4909572;29;20067;-72
2023/11/03 10:49:40;;;;;;;0.10;0.10;;;;;;;4.38;67.23;99876.84;4939481;28;20649;-72
2023/11/03 10:52:15;;;;;;;0.10;0.10;;;;;;;4.66;67.43;99859.94;4937054;29;20426;-72
2023/11/03 10:54:59;;;;;;;0.10;0.10;;;;;;;4.68;66.12;99859.72;4925211;29;20059;-70
2023/11/03 10:57:26;;;;;;;0.10;0.10;;;;;;;4.62;65.78;99849.84;4916242;28;20197;-69
2023/11/03 11:00:03;;;;;;;0.10;0.10;;;;;;;4.55;66.02;99860.78;4922959;28;20055;-71
2023/11/03 11:02:40;;;;;;;0.10;0.10;;;;;;;4.49;66.75;99859.81;4953653;28;20146;-71
2023/11/03 11:05:24;;;;;;;0.10;0.10;;;;;;;4.56;66.73;99864.28;4940562;28;20085;-72
2023/11/03 11:07:57;;;;;;;0.10;0.10;;;;;;;4.55;66.95;99874.31;4931842;28;20117;-72
2023/11/03 11:10:36;;;;;;;0.10;0.10;;;;;;;4.54;66.68;99876.19;4934291;28;20060;-71
2023/11/03 11:13:09;;;;;;;0.10;0.10;;;;;;;4.50;66.35;99879.59;4916287;28;20082;-71
2023/11/03 11:15:37;;;;;;;0.10;0.10;;;;;;;4.51;67.14;99870.41;4934347;28;20442;-72
2023/11/03 11:18:16;;;;;;;0.10;0.10;;;;;;;4.49;66.48;99875.22;4931509;28;20063;-69
2023/11/03 11:20:55;;;;;;;0.10;0.10;;;;;;;4.43;65.77;99879.69;4921129;29;20086;-69
2023/11/03 11:23:25;;;;;;;0.10;0.10;;;;;;;4.40;66.38;99875.59;4939311;28;20125;-69
2023/11/03 11:25:55;;;;;;;0.10;0.10;;;;;;;4.43;66.78;99873.47;4921323;29;20109;-70
2023/11/03 11:28:35;;;;;;;0.13;0.13;;;;;;;4.49;66.92;99878.78;4937568;28;20048;-70
2023/11/03 11:31:38;;;;;;;0.10;0.10;;;;;;;4.60;66.94;99882.56;4935658;29;20040;-70
2023/11/03 11:34:06;;;;;;;0.20;0.20;;;;;;;4.70;67.07;99881.16;4880717;28;20459;-69
2023/11/03 11:36:39;;;;;;;0.10;0.10;;;;;;;4.68;66.98;99879.53;4885258;28;20056;-70
2023/11/03 11:39:16;;;;;;;0.10;0.10;;;;;;;4.63;67.04;99878.56;4899767;29;20083;-69
2023/11/03 11:41:53;;;;;;;0.10;0.10;;;;;;;4.63;67.36;99878.56;4894252;29;20071;-69
2023/11/03 11:44:24;;;;;;;0.10;0.10;;;;;;;4.70;67.70;99892.00;4880439;29;20090;-69
2023/11/03 11:46:56;;;;;;;0.10;0.10;;;;;;;4.58;66.68;99887.38;4898950;29;20051;-69